createdAt,value
2023-02-21T00:02:43.652Z,7.90
2023-02-21T00:05:29.257Z,7.90
2023-02-21T00:08:14.484Z,7.80
2023-02-21T00:10:59.973Z,7.70
2023-02-21T00:13:45.370Z,7.80
2023-02-21T00:16:35.949Z,7.70
2023-02-21T00:19:22.695Z,7.70
2023-02-21T00:22:08.110Z,7.60
2023-02-21T00:24:53.531Z,7.60
2023-02-21T00:27:38.961Z,7.50
2023-02-21T00:30:25.344Z,7.40
2023-02-21T00:33:10.863Z,7.30
2023-02-21T00:35:56.184Z,7.20
2023-02-21T00:38:41.675Z,7.30
2023-02-21T00:41:27.199Z,7.30
2023-02-21T00:44:12.677Z,7.20
2023-02-21T00:46:58.193Z,7.10
2023-02-21T00:49:43.494Z,7.10
2023-02-21T00:52:29.108Z,7.10
2023-02-21T00:55:14.548Z,7.10
2023-02-21T00:58:00.005Z,7.10
2023-02-21T01:00:45.549Z,7.10
2023-02-21T01:03:31.300Z,7.00
2023-02-21T01:06:16.844Z,7.00
2023-02-21T01:09:04.037Z,6.90
2023-02-21T01:11:49.965Z,6.80
2023-02-21T01:14:36.064Z,6.90
2023-02-21T01:17:21.590Z,7.00
2023-02-21T01:20:07.083Z,7.10
2023-02-21T01:22:52.582Z,7.20
2023-02-21T01:25:38.013Z,7.40
2023-02-21T01:28:23.680Z,7.50
2023-02-21T01:31:09.004Z,7.60
2023-02-21T01:33:59.943Z,7.70
2023-02-21T01:36:45.886Z,7.70
2023-02-21T01:39:32.293Z,7.60
2023-02-21T01:42:18.327Z,7.60
2023-02-21T01:45:05.485Z,7.50
2023-02-21T01:47:51.529Z,7.40
2023-02-21T01:50:46.614Z,7.30
2023-02-21T01:53:36.474Z,7.00
2023-02-21T01:56:23.133Z,6.90
2023-02-21T01:59:11.036Z,6.90
2023-02-21T02:02:09.971Z,6.80
2023-02-21T02:04:56.480Z,6.80
2023-02-21T02:07:42.170Z,6.70
2023-02-21T02:10:29.305Z,6.60
2023-02-21T02:13:17.088Z,6.60
2023-02-21T02:15:43.863Z,6.50
2023-02-21T02:18:45.886Z,6.50
2023-02-21T02:21:31.267Z,6.40
2023-02-21T02:24:16.199Z,6.30
2023-02-21T02:27:07.038Z,6.30
2023-02-21T02:30:08.074Z,6.20
2023-02-21T02:32:55.895Z,6.20
2023-02-21T02:35:29.205Z,6.10
2023-02-21T02:38:03.611Z,6.10
2023-02-21T02:40:45.415Z,6.10
2023-02-21T02:43:38.669Z,6.10
2023-02-21T02:46:23.575Z,6.10
2023-02-21T02:49:05.736Z,6.10
2023-02-21T02:51:34.357Z,6.00
2023-02-21T02:54:01.229Z,6.00
2023-02-21T02:56:28.979Z,6.00
2023-02-21T02:59:13.173Z,6.00
2023-02-21T03:01:48.913Z,6.00
2023-02-21T03:04:29.588Z,6.00
2023-02-21T03:07:02.525Z,6.00
2023-02-21T03:09:59.688Z,5.90
2023-02-21T03:12:48.936Z,5.90
2023-02-21T03:15:21.480Z,5.80
2023-02-21T03:18:03.022Z,5.80
2023-02-21T03:20:30.428Z,5.80
2023-02-21T03:22:58.643Z,5.80
2023-02-21T03:25:27.489Z,5.70
2023-02-21T03:27:55.376Z,5.70
2023-02-21T03:30:23.139Z,5.80
2023-02-21T03:32:52.660Z,5.80
2023-02-21T03:35:20.900Z,5.80
2023-02-21T03:37:53.253Z,5.80
2023-02-21T03:40:26.932Z,5.70
2023-02-21T03:42:55.772Z,5.70
2023-02-21T03:45:23.103Z,5.70
2023-02-21T03:47:49.994Z,5.70
2023-02-21T03:50:16.898Z,5.60
2023-02-21T03:52:43.740Z,5.70
2023-02-21T03:55:11.088Z,5.60
2023-02-21T03:57:37.887Z,5.70
2023-02-21T04:00:04.959Z,5.60
2023-02-21T04:02:31.763Z,5.60
2023-02-21T04:04:58.538Z,5.60
2023-02-21T04:07:25.538Z,5.60
2023-02-21T04:09:52.434Z,5.50
2023-02-21T04:12:19.258Z,5.50
2023-02-21T04:14:46.075Z,5.50
2023-02-21T04:17:12.981Z,5.40
2023-02-21T04:19:39.746Z,5.40
2023-02-21T04:22:06.553Z,5.40
2023-02-21T04:24:33.335Z,5.30
2023-02-21T04:27:00.151Z,5.30
2023-02-21T04:29:26.954Z,5.30
2023-02-21T04:31:55.681Z,5.20
2023-02-21T04:34:22.584Z,5.20
2023-02-21T04:36:49.461Z,5.10
2023-02-21T04:39:16.268Z,5.20
2023-02-21T04:41:43.172Z,5.20
2023-02-21T04:44:10.360Z,5.20
2023-02-21T04:46:37.245Z,5.30
2023-02-21T04:49:04.379Z,5.30
2023-02-21T04:51:31.429Z,5.20
2023-02-21T04:53:58.271Z,5.20
2023-02-21T04:56:27.525Z,5.20
2023-02-21T04:58:54.698Z,5.20
2023-02-21T05:01:22.515Z,5.20
2023-02-21T05:03:49.578Z,5.10
2023-02-21T05:06:24.393Z,5.10
2023-02-21T05:08:51.319Z,5.20
2023-02-21T05:11:19.635Z,5.20
2023-02-21T05:13:46.582Z,5.30
2023-02-21T05:16:13.523Z,5.30
2023-02-21T05:18:45.281Z,5.30
2023-02-21T05:21:13.631Z,5.30
2023-02-21T05:23:42.795Z,5.40
2023-02-21T05:26:12.494Z,5.40
2023-02-21T05:28:41.146Z,5.40
2023-02-21T05:31:08.932Z,5.50
2023-02-21T05:33:35.986Z,5.50
2023-02-21T05:36:03.341Z,5.50
2023-02-21T05:38:30.234Z,5.50
2023-02-21T05:40:57.025Z,5.40
2023-02-21T05:43:23.926Z,5.40
2023-02-21T05:45:50.796Z,5.40
2023-02-21T05:48:17.624Z,5.30
2023-02-21T05:50:45.458Z,5.40
2023-02-21T05:53:12.321Z,5.40
2023-02-21T05:55:39.167Z,5.30
2023-02-21T05:58:06.119Z,5.30
2023-02-21T06:00:32.965Z,5.40
2023-02-21T06:03:00.189Z,5.40
2023-02-21T06:05:27.363Z,5.40
2023-02-21T06:07:54.148Z,5.40
2023-02-21T06:10:21.107Z,5.40
2023-02-21T06:12:48.044Z,5.40
2023-02-21T06:15:15.497Z,5.40
2023-02-21T06:17:43.254Z,5.40
2023-02-21T06:20:15.217Z,5.40
2023-02-21T06:22:42.257Z,5.50
2023-02-21T06:25:09.560Z,5.50
2023-02-21T06:27:36.569Z,5.60
2023-02-21T06:30:04.738Z,5.90
2023-02-21T06:32:31.820Z,6.20
2023-02-21T06:34:58.637Z,6.60
2023-02-21T06:37:25.434Z,7.10
2023-02-21T06:39:52.310Z,7.40
2023-02-21T06:42:19.433Z,7.50
2023-02-21T06:44:50.180Z,7.40
2023-02-21T06:47:17.622Z,7.40
2023-02-21T06:49:44.567Z,7.70
2023-02-21T06:52:11.382Z,7.90
2023-02-21T06:54:38.348Z,8.30
2023-02-21T06:57:05.797Z,8.90
2023-02-21T06:59:32.726Z,9.60
2023-02-21T07:01:59.634Z,10.30
2023-02-21T07:04:26.531Z,10.90
2023-02-21T07:06:53.517Z,11.10
2023-02-21T07:09:20.865Z,11.60
2023-02-21T07:11:47.826Z,12.10
2023-02-21T07:14:15.146Z,12.00
2023-02-21T07:16:42.010Z,12.10
2023-02-21T07:19:09.076Z,12.50
2023-02-21T07:21:36.381Z,12.90
2023-02-21T07:24:03.990Z,13.50
2023-02-21T07:26:30.772Z,14.10
2023-02-21T07:28:57.584Z,14.70
2023-02-21T07:31:24.578Z,15.40
2023-02-21T07:33:51.449Z,14.80
2023-02-21T07:36:18.351Z,15.30
2023-02-21T07:38:45.160Z,14.90
2023-02-21T07:41:14.430Z,15.50
2023-02-21T07:43:41.470Z,16.10
2023-02-21T07:46:12.509Z,16.40
2023-02-21T07:48:39.577Z,16.40
2023-02-21T07:51:09.527Z,16.50
2023-02-21T07:53:36.606Z,16.60
2023-02-21T07:56:04.664Z,16.40
2023-02-21T07:58:32.567Z,15.80
2023-02-21T08:00:59.509Z,16.50
2023-02-21T08:03:26.419Z,16.40
2023-02-21T08:05:53.307Z,17.80
2023-02-21T08:08:20.144Z,17.90
2023-02-21T08:10:47.081Z,17.50
2023-02-21T08:13:13.982Z,18.00
2023-02-21T08:15:40.872Z,17.20
2023-02-21T08:18:18.642Z,17.60
2023-02-21T08:20:45.568Z,18.10
2023-02-21T08:23:12.487Z,17.60
2023-02-21T08:25:39.522Z,17.40
2023-02-21T08:28:06.360Z,18.20
2023-02-21T08:30:33.252Z,18.80
2023-02-21T08:33:00.096Z,17.90
2023-02-21T08:35:26.944Z,18.20
2023-02-21T08:37:57.080Z,18.00
2023-02-21T08:40:24.761Z,18.20
2023-02-21T08:42:52.631Z,19.10
2023-02-21T08:45:21.938Z,19.90
2023-02-21T08:47:49.268Z,20.30
2023-02-21T08:50:16.257Z,19.60
2023-02-21T08:52:43.271Z,19.70
2023-02-21T08:55:10.259Z,19.70
2023-02-21T08:57:37.069Z,19.40
2023-02-21T09:00:06.874Z,19.50
2023-02-21T09:02:33.679Z,19.70
2023-02-21T09:05:00.459Z,19.70
2023-02-21T09:07:28.753Z,20.20
2023-02-21T09:09:55.545Z,20.10
2023-02-21T09:12:22.449Z,20.40
2023-02-21T09:14:49.266Z,20.60
2023-02-21T09:17:16.111Z,20.40
2023-02-21T09:19:42.962Z,20.30
2023-02-21T09:22:10.839Z,21.40
2023-02-21T09:24:38.273Z,21.10
2023-02-21T09:27:06.110Z,20.90
2023-02-21T09:29:45.338Z,21.20
2023-02-21T09:32:13.705Z,21.50
2023-02-21T09:34:40.597Z,21.70
2023-02-21T09:37:07.628Z,21.60
2023-02-21T09:39:36.855Z,22.20
2023-02-21T09:42:03.811Z,22.20
2023-02-21T09:44:30.836Z,22.70
2023-02-21T09:47:06.839Z,21.90
2023-02-21T09:49:42.998Z,21.90
2023-02-21T09:52:27.437Z,21.90
2023-02-21T09:54:58.162Z,21.90
2023-02-21T09:57:25.142Z,22.00
2023-02-21T09:59:51.971Z,22.20
2023-02-21T10:02:37.979Z,22.40
2023-02-21T10:05:23.276Z,22.80
2023-02-21T10:07:59.023Z,22.70
2023-02-21T10:10:55.602Z,22.40
2023-02-21T10:13:53.056Z,22.80
2023-02-21T10:16:29.678Z,23.10
2023-02-21T10:19:31.350Z,23.50
2023-02-21T10:22:00.920Z,23.20
2023-02-21T10:24:28.775Z,23.10
2023-02-21T10:27:05.567Z,23.60
2023-02-21T10:29:50.825Z,23.40
2023-02-21T10:32:18.644Z,23.40
2023-02-21T10:34:48.105Z,23.60
2023-02-21T10:37:33.383Z,24.00
2023-02-21T10:40:33.759Z,24.10
2023-02-21T10:43:31.485Z,24.20
2023-02-21T10:46:17.030Z,24.40
2023-02-21T10:48:47.038Z,23.80
2023-02-21T10:51:32.554Z,24.00
2023-02-21T10:54:21.936Z,24.10
2023-02-21T10:56:50.091Z,24.30
2023-02-21T10:59:26.955Z,24.60
2023-02-21T11:01:55.513Z,25.00
2023-02-21T11:04:22.630Z,25.10
2023-02-21T11:06:59.428Z,25.20
2023-02-21T11:09:41.265Z,25.00
2023-02-21T11:12:19.962Z,25.00
2023-02-21T11:14:52.621Z,24.80
2023-02-21T11:17:28.529Z,24.90
2023-02-21T11:20:03.899Z,25.10
2023-02-21T11:22:43.551Z,25.30
2023-02-21T11:25:29.770Z,25.10
2023-02-21T11:28:18.185Z,25.30
2023-02-21T11:30:51.288Z,25.60
2023-02-21T11:33:22.240Z,25.90
2023-02-21T11:35:54.756Z,25.60
2023-02-21T11:38:30.584Z,25.00
2023-02-21T11:40:57.498Z,25.10
2023-02-21T11:43:29.435Z,25.40
2023-02-21T11:46:02.585Z,25.30
2023-02-21T11:48:39.113Z,25.00
2023-02-21T11:51:16.633Z,25.70
2023-02-21T11:53:44.171Z,25.20
2023-02-21T11:56:21.910Z,24.90
2023-02-21T11:59:03.698Z,25.10
2023-02-21T12:01:54.858Z,25.40
2023-02-21T12:04:52.346Z,25.10
2023-02-21T12:07:43.872Z,25.00
2023-02-21T12:10:51.700Z,25.50
2023-02-21T12:13:44.940Z,25.40
2023-02-21T12:16:39.891Z,26.70
2023-02-21T12:19:12.553Z,26.10
2023-02-21T12:21:50.704Z,25.90
2023-02-21T12:24:39.399Z,25.70
2023-02-21T12:27:41.747Z,25.40
2023-02-21T12:30:38.589Z,25.40
2023-02-21T12:33:25.872Z,25.90
2023-02-21T12:36:15.705Z,26.20
2023-02-21T12:39:00.621Z,26.50
2023-02-21T12:41:45.682Z,26.50
2023-02-21T12:44:19.841Z,26.40
2023-02-21T12:47:09.166Z,26.60
2023-02-21T12:49:51.023Z,26.50
2023-02-21T12:52:38.036Z,26.40
2023-02-21T12:55:16.046Z,26.20
2023-02-21T12:58:17.523Z,25.90
2023-02-21T13:00:54.945Z,26.30
2023-02-21T13:03:37.239Z,25.90
2023-02-21T13:06:11.574Z,25.80
2023-02-21T13:08:47.466Z,25.90
2023-02-21T13:11:26.118Z,25.80
2023-02-21T13:13:52.909Z,25.60
2023-02-21T13:16:20.953Z,25.90
2023-02-21T13:18:59.511Z,25.70
2023-02-21T13:21:38.306Z,25.60
2023-02-21T13:24:31.125Z,25.70
2023-02-21T13:27:28.614Z,25.50
2023-02-21T13:30:36.734Z,25.90
2023-02-21T13:33:04.177Z,25.70
2023-02-21T13:35:35.641Z,26.30
2023-02-21T13:38:10.637Z,25.40
2023-02-21T13:40:51.148Z,25.10
2023-02-21T13:43:29.960Z,25.20
2023-02-21T13:46:37.085Z,25.50
2023-02-21T13:49:42.845Z,26.00
2023-02-21T13:52:24.424Z,26.00
2023-02-21T13:55:15.729Z,25.70
2023-02-21T13:57:49.246Z,26.10
2023-02-21T14:00:24.926Z,25.60
2023-02-21T14:03:09.983Z,25.60
2023-02-21T14:05:52.265Z,25.50
2023-02-21T14:08:32.248Z,25.80
2023-02-21T14:11:06.078Z,25.60
2023-02-21T14:13:37.843Z,25.60
2023-02-21T14:16:07.651Z,25.70
2023-02-21T14:18:40.442Z,25.40
2023-02-21T14:21:10.872Z,25.50
2023-02-21T14:23:49.514Z,25.20
2023-02-21T14:26:39.741Z,25.50
2023-02-21T14:29:09.268Z,25.40
2023-02-21T14:31:51.610Z,25.40
2023-02-21T14:34:40.500Z,25.70
2023-02-21T14:37:21.848Z,25.30
2023-02-21T14:39:55.002Z,25.10
2023-02-21T14:42:54.480Z,25.00
2023-02-21T14:45:36.963Z,24.90
2023-02-21T14:48:39.316Z,25.00
2023-02-21T14:51:28.877Z,24.80
2023-02-21T14:54:14.717Z,24.50
2023-02-21T14:56:47.084Z,24.40
2023-02-21T14:59:38.098Z,24.20
2023-02-21T15:02:17.304Z,23.80
2023-02-21T15:04:57.037Z,22.60
2023-02-21T15:07:47.704Z,21.50
2023-02-21T15:10:14.567Z,21.70
2023-02-21T15:13:04.257Z,22.40
2023-02-21T15:15:41.664Z,22.60
2023-02-21T15:18:11.858Z,22.90
2023-02-21T15:20:42.953Z,23.10
2023-02-21T15:23:16.012Z,23.10
2023-02-21T15:25:44.488Z,23.30
2023-02-21T15:28:31.322Z,23.60
2023-02-21T15:31:10.357Z,23.50
2023-02-21T15:33:42.242Z,23.30
2023-02-21T15:36:22.899Z,23.30
2023-02-21T15:39:12.928Z,23.40
2023-02-21T15:41:46.875Z,23.20
2023-02-21T15:44:22.661Z,23.10
2023-02-21T15:47:07.855Z,23.20
2023-02-21T15:49:39.351Z,23.30
2023-02-21T15:52:06.632Z,23.30
2023-02-21T15:54:38.485Z,23.30
2023-02-21T15:57:15.473Z,23.60
2023-02-21T15:59:42.293Z,23.50
2023-02-21T16:02:13.397Z,23.20
2023-02-21T16:04:42.706Z,23.80
2023-02-21T16:07:35.050Z,23.80
2023-02-21T16:10:06.100Z,23.80
2023-02-21T16:12:43.980Z,23.70
2023-02-21T16:15:36.615Z,23.70
2023-02-21T16:18:11.243Z,23.40
2023-02-21T16:20:42.861Z,23.10
2023-02-21T16:23:24.783Z,22.40
2023-02-21T16:26:09.999Z,21.70
2023-02-21T16:28:38.709Z,20.80
2023-02-21T16:31:08.570Z,19.70
2023-02-21T16:33:36.315Z,18.60
2023-02-21T16:36:18.603Z,17.70
2023-02-21T16:38:45.462Z,16.80
2023-02-21T16:41:15.980Z,16.10
2023-02-21T16:43:43.076Z,15.60
2023-02-21T16:46:10.032Z,15.30
2023-02-21T16:48:37.030Z,14.90
2023-02-21T16:51:18.128Z,14.70
2023-02-21T16:53:46.376Z,14.30
2023-02-21T16:56:14.429Z,14.10
2023-02-21T16:58:44.218Z,13.90
2023-02-21T17:01:27.884Z,13.70
2023-02-21T17:03:54.762Z,13.50
2023-02-21T17:06:24.510Z,13.40
2023-02-21T17:08:51.789Z,13.20
2023-02-21T17:11:18.722Z,13.10
2023-02-21T17:13:45.859Z,12.90
2023-02-21T17:16:13.006Z,12.80
2023-02-21T17:18:39.950Z,12.70
2023-02-21T17:21:06.742Z,12.60
2023-02-21T17:23:33.540Z,12.50
2023-02-21T17:26:00.347Z,12.40
2023-02-21T17:28:27.171Z,12.20
2023-02-21T17:30:54.161Z,12.20
2023-02-21T17:33:21.120Z,12.10
2023-02-21T17:35:47.973Z,12.00
2023-02-21T17:38:14.841Z,11.90
2023-02-21T17:40:41.750Z,11.80
2023-02-21T17:43:09.144Z,11.70
2023-02-21T17:45:36.518Z,11.60
2023-02-21T17:48:05.613Z,11.50
2023-02-21T17:50:32.482Z,11.40
2023-02-21T17:52:59.367Z,11.40
2023-02-21T17:55:28.958Z,11.30
2023-02-21T17:57:56.132Z,11.10
2023-02-21T18:00:26.165Z,11.10
2023-02-21T18:02:54.559Z,11.10
2023-02-21T18:05:22.090Z,10.90
2023-02-21T18:07:53.881Z,10.90
2023-02-21T18:10:23.891Z,10.80
2023-02-21T18:12:51.646Z,10.70
2023-02-21T18:15:21.099Z,10.70
2023-02-21T18:17:48.065Z,10.70
2023-02-21T18:20:16.006Z,10.60
2023-02-21T18:22:43.500Z,10.60
2023-02-21T18:25:10.856Z,10.50
2023-02-21T18:27:37.909Z,10.50
2023-02-21T18:30:05.246Z,10.40
2023-02-21T18:32:32.132Z,10.50
2023-02-21T18:35:00.637Z,10.50
2023-02-21T18:37:27.660Z,10.50
2023-02-21T18:39:56.218Z,10.30
2023-02-21T18:42:24.107Z,10.30
2023-02-21T18:44:51.717Z,10.30
2023-02-21T18:47:19.459Z,10.10
2023-02-21T18:49:47.485Z,10.00
2023-02-21T18:52:15.366Z,9.90
2023-02-21T18:54:47.051Z,9.80
2023-02-21T18:57:13.889Z,9.80
2023-02-21T18:59:40.751Z,9.90
2023-02-21T19:02:12.498Z,9.80
2023-02-21T19:04:39.391Z,9.90
2023-02-21T19:07:08.255Z,9.90
2023-02-21T19:09:38.093Z,10.00
2023-02-21T19:12:07.976Z,9.90
2023-02-21T19:14:35.401Z,9.90
2023-02-21T19:17:02.191Z,9.80
2023-02-21T19:19:32.204Z,9.70
2023-02-21T19:21:59.853Z,9.60
2023-02-21T19:24:27.108Z,9.60
2023-02-21T19:26:54.191Z,9.60
2023-02-21T19:29:21.230Z,9.50
2023-02-21T19:31:48.761Z,9.50
2023-02-21T19:34:15.707Z,9.50
2023-02-21T19:36:42.586Z,9.50
2023-02-21T19:39:10.103Z,9.40
2023-02-21T19:41:37.155Z,9.30
2023-02-21T19:44:05.127Z,9.30
2023-02-21T19:46:32.455Z,9.20
2023-02-21T19:49:02.086Z,9.20
2023-02-21T19:51:31.558Z,9.10
2023-02-21T19:53:59.141Z,9.00
2023-02-21T19:56:27.296Z,8.90
2023-02-21T19:58:54.159Z,8.90
2023-02-21T20:01:25.346Z,8.80
2023-02-21T20:03:52.701Z,8.80
2023-02-21T20:06:20.095Z,8.80
2023-02-21T20:08:48.430Z,8.80
2023-02-21T20:11:18.162Z,8.80
2023-02-21T20:13:45.310Z,8.80
2023-02-21T20:16:15.436Z,8.80
2023-02-21T20:18:43.538Z,8.80
2023-02-21T20:21:10.588Z,8.80
2023-02-21T20:23:37.393Z,8.80
2023-02-21T20:26:04.337Z,8.70
2023-02-21T20:28:31.173Z,8.60
2023-02-21T20:30:58.624Z,8.60
2023-02-21T20:33:25.567Z,8.50
2023-02-21T20:35:52.687Z,8.40
2023-02-21T20:38:19.814Z,8.30
2023-02-21T20:40:47.154Z,8.30
2023-02-21T20:43:13.960Z,8.20
2023-02-21T20:45:40.858Z,8.20
2023-02-21T20:48:11.185Z,8.20
2023-02-21T20:50:38.624Z,8.20
2023-02-21T20:53:05.760Z,8.20
2023-02-21T20:55:32.758Z,8.20
2023-02-21T20:57:59.597Z,8.20
2023-02-21T21:00:30.444Z,8.30
2023-02-21T21:02:57.655Z,8.20
2023-02-21T21:05:24.588Z,8.10
2023-02-21T21:07:55.566Z,8.00
2023-02-21T21:10:22.964Z,7.80
2023-02-21T21:12:51.399Z,7.70
2023-02-21T21:15:20.036Z,7.60
2023-02-21T21:17:48.462Z,7.50
2023-02-21T21:20:20.897Z,7.50
2023-02-21T21:22:48.274Z,7.40
2023-02-21T21:25:17.098Z,7.30
2023-02-21T21:27:44.789Z,7.30
2023-02-21T21:30:22.398Z,7.20
2023-02-21T21:32:49.699Z,7.10
2023-02-21T21:35:19.735Z,7.00
2023-02-21T21:37:47.877Z,7.00
2023-02-21T21:40:18.441Z,6.90
2023-02-21T21:42:49.356Z,6.90
2023-02-21T21:45:24.643Z,6.90
2023-02-21T21:47:53.323Z,6.90
2023-02-21T21:50:21.812Z,6.80
2023-02-21T21:52:54.540Z,6.80
2023-02-21T21:55:24.554Z,6.70
2023-02-21T21:57:55.946Z,6.70
2023-02-21T22:00:26.045Z,6.70
2023-02-21T22:02:58.497Z,6.60
2023-02-21T22:05:27.862Z,6.50
2023-02-21T22:07:55.982Z,6.50
2023-02-21T22:10:24.973Z,6.50
2023-02-21T22:12:53.365Z,6.50
2023-02-21T22:15:21.925Z,6.50
2023-02-21T22:17:49.001Z,6.40
2023-02-21T22:20:21.788Z,6.40
2023-02-21T22:22:50.928Z,6.30
2023-02-21T22:25:21.388Z,6.30
2023-02-21T22:27:48.696Z,6.30
2023-02-21T22:30:18.195Z,6.30
2023-02-21T22:32:46.952Z,6.30
2023-02-21T22:35:18.351Z,6.20
2023-02-21T22:37:51.175Z,6.20
2023-02-21T22:40:26.961Z,6.20
2023-02-21T22:42:55.452Z,6.20
2023-02-21T22:45:23.243Z,6.10
2023-02-21T22:47:51.137Z,6.10
2023-02-21T22:50:22.021Z,6.10
2023-02-21T22:53:01.542Z,6.10
2023-02-21T22:55:29.738Z,6.00
2023-02-21T22:57:58.885Z,6.00
2023-02-21T23:00:35.546Z,6.00
2023-02-21T23:03:15.677Z,5.90
2023-02-21T23:05:44.983Z,5.90
2023-02-21T23:08:14.026Z,5.90
2023-02-21T23:10:41.778Z,5.90
2023-02-21T23:13:14.213Z,5.90
2023-02-21T23:15:44.361Z,5.90
2023-02-21T23:18:18.165Z,5.90
2023-02-21T23:20:44.911Z,6.00
2023-02-21T23:23:12.678Z,5.90
2023-02-21T23:25:39.790Z,5.90
2023-02-21T23:28:14.028Z,5.90
2023-02-21T23:30:42.287Z,5.90
2023-02-21T23:33:15.484Z,5.90
2023-02-21T23:35:43.839Z,6.00
2023-02-21T23:38:15.560Z,6.00
2023-02-21T23:40:56.187Z,6.00
2023-02-21T23:43:29.602Z,6.00
2023-02-21T23:45:58.118Z,6.00
2023-02-21T23:48:24.960Z,6.10
2023-02-21T23:50:51.946Z,6.00
2023-02-21T23:53:22.643Z,5.90
2023-02-21T23:55:49.991Z,5.80
2023-02-21T23:58:19.047Z,5.70
